Time;durP1;ratioP1;P1;durP2;ratioP2;P2;SDS_P1;SDS_P2;PMS_P1;PMS_P2;Temp;Humidity;BMP_temperature;BMP_pressure;BME280_temperature;BME280_humidity;BME280_pressure;Samples;Min_cycle;Max_cycle;Signal;HPM_P1;HPM_P2
2021/06/12 00:02:15;;;;;;;;;1.00;1.00;;;;;24.94;46.62;101798.56;5086010;28;45509;-86
2021/06/12 00:04:41;;;;;;;;;1.00;1.00;;;;;24.86;46.36;101792.38;5093205;28;46120;-81
2021/06/12 00:07:07;;;;;;;;;1.00;1.00;;;;;24.80;46.81;101808.25;5094107;27;45205;-81
2021/06/12 00:09:32;;;;;;;;;1.75;0.75;;;;;24.68;46.64;101806.44;5094876;27;45282;-84
2021/06/12 00:11:58;;;;;;;;;0.00;0.00;;;;;24.55;47.39;101808.19;5083875;28;45578;-86
2021/06/12 00:14:24;;;;;;;;;1.00;1.00;;;;;24.55;46.99;101821.44;5078481;27;47459;-86
2021/06/12 00:16:49;;;;;;;;;1.00;1.00;;;;;24.51;47.21;101811.69;5070369;28;45249;-86
2021/06/12 00:19:15;;;;;;;;;2.00;1.00;;;;;24.48;47.46;101806.38;5059706;28;46029;-86
2021/06/12 00:21:41;;;;;;;;;1.75;1.75;;;;;24.46;47.31;101810.81;5060383;28;45470;-86
2021/06/12 00:24:08;;;;;;;;;2.00;1.00;;;;;24.45;47.01;101804.63;5067896;28;45447;-83
2021/06/12 00:26:35;;;;;;;;;1.25;1.25;;;;;24.37;47.46;101814.31;5047402;28;45330;-85
2021/06/12 00:29:01;;;;;;;;;2.00;1.00;;;;;24.34;47.04;101804.59;5060407;28;45225;-86
2021/06/12 00:31:27;;;;;;;;;1.00;1.00;;;;;24.31;46.88;101811.63;5059737;28;45363;-86
2021/06/12 00:33:53;;;;;;;;;1.00;1.00;;;;;24.26;47.01;101808.97;5063984;28;45420;-87
2021/06/12 00:36:21;;;;;;;;;0.00;0.00;;;;;24.22;47.14;101804.56;5067664;28;45281;-86
2021/06/12 00:38:48;;;;;;;;;1.00;0.75;;;;;24.10;46.97;101800.06;5063708;28;45343;-86
2021/06/12 00:41:13;;;;;;;;;2.50;2.00;;;;;24.24;46.94;101816.03;5069951;28;45578;-86
2021/06/12 00:43:42;;;;;;;;;1.00;1.00;;;;;24.19;46.94;101797.47;5080064;27;45257;-86
2021/06/12 00:46:09;;;;;;;;;1.00;1.00;;;;;24.22;46.89;101816.00;5079392;28;45282;-86
2021/06/12 00:48:35;;;;;;;;;1.25;1.25;;;;;24.16;46.56;101807.16;5079788;28;45390;-87
2021/06/12 00:51:01;;;;;;;;;0.00;0.00;;;;;24.14;46.56;101804.53;5081595;28;45343;-85
2021/06/12 00:53:41;;;;;;;;;1.00;1.00;;;;;24.13;46.58;101807.16;5070297;28;45652;-86
2021/06/12 00:56:13;;;;;;;;;1.00;1.00;;;;;24.10;46.46;101805.38;5086842;27;45381;-81
2021/06/12 00:58:43;;;;;;;;;0.00;0.00;;;;;24.10;46.98;101808.91;5078136;27;45269;-86
2021/06/12 01:01:14;;;;;;;;;2.00;2.00;;;;;24.12;46.65;101803.63;5079447;27;45488;-85
2021/06/12 01:03:40;;;;;;;;;0.50;0.50;;;;;24.18;47.10;101810.69;5080432;27;45368;-85
2021/06/12 01:06:15;;;;;;;;;2.00;1.00;;;;;24.19;46.56;101807.19;5086754;27;45493;-86
2021/06/12 01:08:43;;;;;;;;;1.00;1.00;;;;;24.08;46.97;101807.16;5080048;28;45302;-86
2021/06/12 01:11:11;;;;;;;;;1.75;1.00;;;;;23.98;46.75;101792.97;5080277;28;45527;-86
2021/06/12 01:13:52;;;;;;;;;0.50;0.50;;;;;24.02;46.77;101808.00;5080868;28;46110;-83
2021/06/12 01:16:41;;;;;;;;;1.00;1.00;;;;;23.99;46.95;101807.06;5082499;28;45766;-87
2021/06/12 01:19:35;;;;;;;;;1.00;1.00;;;;;23.91;46.93;101799.09;5079404;27;45375;-84
2021/06/12 01:22:05;;;;;;;;;1.00;1.00;;;;;23.91;47.25;101796.44;5085045;28;45322;-86
2021/06/12 01:24:52;;;;;;;;;1.00;1.00;;;;;23.89;47.30;101793.78;5084578;28;45372;-86
2021/06/12 01:27:53;;;;;;;;;1.50;0.50;;;;;23.85;47.46;101801.69;5084892;27;45585;-85
2021/06/12 01:30:22;;;;;;;;;0.00;0.00;;;;;23.79;47.56;101805.19;5097176;28;45322;-87
2021/06/12 01:32:54;;;;;;;;;1.25;1.25;;;;;23.82;48.06;101807.84;5079728;28;45656;-87
2021/06/12 01:35:28;;;;;;;;;1.00;1.00;;;;;23.77;47.45;101807.84;5082081;28;45528;-87
2021/06/12 01:37:55;;;;;;;;;1.00;1.00;;;;;23.75;47.82;101803.41;5084322;27;45240;-87
2021/06/12 01:40:25;;;;;;;;;2.00;1.00;;;;;23.72;48.13;101806.03;5077806;27;45365;-87
2021/06/12 01:42:53;;;;;;;;;1.00;1.00;;;;;23.63;48.60;101805.09;5077705;27;45307;-86
2021/06/12 01:45:22;;;;;;;;;2.00;2.00;;;;;23.59;48.45;101798.03;5079574;28;45354;-86
2021/06/12 01:47:48;;;;;;;;;1.25;1.25;;;;;23.64;48.27;101804.25;5078748;28;45358;-86
2021/06/12 01:50:15;;;;;;;;;0.75;0.75;;;;;23.70;48.45;101800.75;5078465;28;45451;-82
2021/06/12 01:52:43;;;;;;;;;1.75;1.75;;;;;23.69;48.48;101808.66;5079312;27;45420;-82
2021/06/12 01:55:12;;;;;;;;;1.50;1.50;;;;;23.60;48.73;101802.44;5078561;28;45582;-82
2021/06/12 01:57:42;;;;;;;;;1.00;1.00;;;;;23.55;48.86;101800.63;5057897;28;45432;-81
2021/06/12 02:00:09;;;;;;;;;1.00;1.00;;;;;23.60;48.75;101809.47;5058474;28;45331;-82
2021/06/12 02:02:36;;;;;;;;;1.00;1.00;;;;;23.50;48.83;101805.91;5058435;28;45566;-83
2021/06/12 02:05:03;;;;;;;;;1.00;1.00;;;;;23.48;49.15;101818.22;5059610;28;45277;-84
2021/06/12 02:07:32;;;;;;;;;0.00;0.00;;;;;23.48;48.69;101818.22;5061005;28;45730;-82
2021/06/12 02:10:00;;;;;;;;;2.25;1.00;;;;;23.43;49.15;101820.81;5059768;28;45382;-82
2021/06/12 02:12:28;;;;;;;;;1.50;1.25;;;;;23.36;49.16;101819.00;5057669;28;45264;-82
2021/06/12 02:14:59;;;;;;;;;1.25;1.25;;;;;23.35;49.43;101825.16;5057390;28;45570;-86
2021/06/12 02:17:30;;;;;;;;;2.00;2.00;;;;;23.34;49.52;101826.91;5055993;28;45682;-85
2021/06/12 02:19:55;;;;;;;;;1.00;1.00;;;;;23.33;49.58;101821.63;5057296;28;45387;-81
2021/06/12 02:22:21;;;;;;;;;1.00;1.00;;;;;23.24;49.73;101818.91;5057385;28;45338;-83
2021/06/12 02:24:47;;;;;;;;;1.00;1.00;;;;;23.24;49.99;101819.78;5058932;28;45375;-83
2021/06/12 02:27:18;;;;;;;;;1.00;1.00;;;;;23.12;50.58;101838.13;5058836;28;45368;-83
2021/06/12 02:29:43;;;;;;;;;1.50;1.50;;;;;22.98;50.51;101828.34;5058072;28;45316;-85
2021/06/12 02:32:13;;;;;;;;;1.00;1.00;;;;;22.91;50.60;101833.53;5059316;28;45431;-83
2021/06/12 02:34:39;;;;;;;;;1.50;1.50;;;;;22.83;50.80;101834.38;5059180;28;45399;-84
2021/06/12 02:37:08;;;;;;;;;1.00;1.00;;;;;22.81;50.77;101837.84;5061864;28;45294;-82
2021/06/12 02:39:34;;;;;;;;;2.50;1.00;;;;;22.81;50.83;101841.38;5065968;28;44710;-86
2021/06/12 02:42:01;;;;;;;;;3.00;1.00;;;;;22.75;51.11;101822.81;5066591;28;45250;-82
2021/06/12 02:44:28;;;;;;;;;0.25;0.25;;;;;22.71;50.90;101835.09;5062728;28;46611;-84
2021/06/12 02:47:00;;;;;;;;;1.00;1.00;;;;;22.72;50.99;101833.38;5061895;28;45783;-83
2021/06/12 02:49:33;;;;;;;;;0.50;0.50;;;;;22.75;50.81;101819.31;5045502;28;45454;-86
2021/06/12 02:52:02;;;;;;;;;0.75;0.75;;;;;22.70;50.65;101821.91;5061432;28;45402;-85
2021/06/12 02:54:30;;;;;;;;;2.00;2.00;;;;;22.66;50.62;101826.28;5065378;28;45495;-84
2021/06/12 02:56:57;;;;;;;;;0.00;0.00;;;;;22.60;50.53;101826.19;5071699;28;45211;-86
2021/06/12 02:59:25;;;;;;;;;2.00;2.00;;;;;22.55;50.78;101819.97;5063877;28;45364;-83
2021/06/12 03:01:53;;;;;;;;;1.50;1.00;;;;;22.58;50.66;101822.63;5060561;28;45324;-82
2021/06/12 03:04:21;;;;;;;;;0.75;0.75;;;;;22.55;50.51;101823.50;5059212;28;46242;-84
2021/06/12 03:06:50;;;;;;;;;1.25;1.00;;;;;22.56;50.89;101832.31;5058835;28;46023;-83
2021/06/12 03:09:18;;;;;;;;;2.00;1.00;;;;;22.51;50.77;101831.34;5058649;28;45376;-86
2021/06/12 03:11:46;;;;;;;;;0.75;0.75;;;;;22.44;51.09;101829.53;5060201;28;45525;-83
2021/06/12 03:14:15;;;;;;;;;1.00;1.00;;;;;22.42;50.34;101825.13;5057712;28;45787;-86
2021/06/12 03:16:43;;;;;;;;;0.50;0.50;;;;;22.40;51.33;101824.19;5057704;28;45723;-86
2021/06/12 03:19:11;;;;;;;;;1.00;1.00;;;;;22.42;51.17;101825.13;5057226;28;45350;-87
2021/06/12 03:21:38;;;;;;;;;0.50;0.50;;;;;22.44;51.01;101825.13;5058149;28;45656;-83
2021/06/12 03:24:05;;;;;;;;;2.00;2.00;;;;;22.43;50.62;101823.34;5062611;28;45307;-87
2021/06/12 03:26:32;;;;;;;;;1.25;1.25;;;;;22.40;50.83;101834.75;5063504;28;45358;-88
2021/06/12 03:28:58;;;;;;;;;1.00;1.00;;;;;22.39;51.03;101838.22;5058571;28;45407;-83
2021/06/12 03:31:24;;;;;;;;;1.00;1.00;;;;;22.38;51.07;101835.59;5060165;28;45308;-86
2021/06/12 03:33:50;;;;;;;;;0.75;0.75;;;;;22.42;51.27;101829.50;5059880;28;46464;-85
2021/06/12 03:36:18;;;;;;;;;2.25;2.00;;;;;22.29;50.99;101827.56;5059912;28;45690;-83
2021/06/12 03:38:44;;;;;;;;;2.00;2.00;;;;;22.21;51.52;101838.88;5061927;28;45334;-83
2021/06/12 03:41:10;;;;;;;;;2.75;2.25;;;;;22.04;52.02;101838.66;5064065;28;45406;-86
2021/06/12 03:43:37;;;;;;;;;1.00;1.00;;;;;22.01;52.47;101836.00;5063832;28;45368;-87
2021/06/12 03:46:04;;;;;;;;;1.75;1.75;;;;;21.90;52.86;101837.59;5060966;28;45659;-88
2021/06/12 03:48:31;;;;;;;;;1.00;1.00;;;;;21.79;52.64;101835.69;5060282;28;45328;-88
2021/06/12 03:50:58;;;;;;;;;1.50;1.00;;;;;21.81;52.69;101838.34;5060570;28;45318;-82
2021/06/12 03:53:43;;;;;;;;;1.00;1.00;;;;;21.84;52.88;101841.03;5060190;28;47916;-83
2021/06/12 03:56:12;;;;;;;;;2.00;2.00;;;;;21.82;52.48;101849.75;5070013;28;45743;-82
2021/06/12 03:58:40;;;;;;;;;3.00;2.50;;;;;21.71;53.15;101847.84;5079976;27;45434;-85
2021/06/12 04:01:05;;;;;;;;;4.00;3.25;;;;;21.67;53.04;101853.94;5080446;27;45610;-85
2021/06/12 04:03:31;;;;;;;;;2.00;2.00;;;;;21.43;53.56;101828.06;5079766;27;45853;-82
2021/06/12 04:05:57;;;;;;;;;5.75;3.00;;;;;21.59;53.45;101848.56;5080816;28;45196;-84
2021/06/12 04:08:22;;;;;;;;;2.25;2.25;;;;;21.61;53.89;101849.47;5082395;27;45224;-86
2021/06/12 04:10:48;;;;;;;;;3.75;2.00;;;;;21.53;53.56;101842.25;5088210;28;45221;-90
2021/06/12 04:13:13;;;;;;;;;3.00;3.00;;;;;21.57;53.97;101838.81;5085009;27;45215;-90
2021/06/12 04:15:40;;;;;;;;;2.00;2.00;;;;;21.63;53.58;101847.75;5085177;27;44974;-81
2021/06/12 04:18:29;;;;;;;;;3.50;2.50;;;;;21.68;53.28;101852.19;5081845;27;44754;-87
2021/06/12 04:20:55;;;;;;;;;5.00;3.75;;;;;21.67;53.89;101866.22;5066815;28;44883;-86
2021/06/12 04:23:23;;;;;;;;;4.00;4.00;;;;;21.65;53.69;101853.03;5064959;28;45235;-84
2021/06/12 04:25:48;;;;;;;;;2.00;2.00;;;;;21.68;53.50;101868.91;5040534;28;45268;-87
2021/06/12 04:28:15;;;;;;;;;3.00;3.00;;;;;21.64;53.25;101865.34;5060261;28;45238;-89
2021/06/12 04:30:42;;;;;;;;;2.50;2.50;;;;;21.58;53.22;101869.59;5059452;28;44794;-89
2021/06/12 04:33:07;;;;;;;;;3.50;3.25;;;;;21.47;53.91;101872.94;5047658;28;45467;-87
2021/06/12 04:35:34;;;;;;;;;5.50;3.25;;;;;21.41;53.96;101870.19;5050024;28;45470;-90
2021/06/12 04:38:00;;;;;;;;;3.00;3.00;;;;;21.38;54.53;101854.31;5051067;28;45289;-89
2021/06/12 04:40:29;;;;;;;;;3.25;3.25;;;;;21.44;53.71;101861.44;5046637;28;45544;-86
2021/06/12 04:42:56;;;;;;;;;5.00;5.00;;;;;21.38;53.95;101874.50;5048262;28;46610;-83
2021/06/12 04:45:23;;;;;;;;;2.00;2.00;;;;;21.30;54.55;101874.38;5045645;28;45421;-83
2021/06/12 04:47:49;;;;;;;;;3.75;3.75;;;;;21.29;54.16;101857.69;5048210;28;45260;-89
2021/06/12 04:50:26;;;;;;;;;2.75;2.25;;;;;21.27;54.77;101859.41;5048375;28;45377;-87
2021/06/12 04:52:51;;;;;;;;;4.00;2.25;;;;;21.29;54.53;101876.13;5070838;28;45818;-86
2021/06/12 04:55:17;;;;;;;;;4.75;2.75;;;;;21.20;54.72;101865.44;5071550;28;45522;-83
2021/06/12 04:57:43;;;;;;;;;4.25;4.25;;;;;21.24;54.72;101872.53;5077357;28;44736;-92
2021/06/12 05:00:11;;;;;;;;;3.00;3.00;;;;;21.28;54.11;101874.38;5069916;28;45160;-89
2021/06/12 05:02:39;;;;;;;;;4.00;3.00;;;;;21.23;54.73;101877.78;5068807;28;46425;-90
2021/06/12 05:05:09;;;;;;;;;4.00;4.00;;;;;21.20;54.41;101860.19;5061418;28;45182;-88
2021/06/12 05:07:35;;;;;;;;;5.00;4.00;;;;;21.24;54.81;101871.66;5061537;28;45451;-88
2021/06/12 05:10:05;;;;;;;;;2.00;2.00;;;;;21.18;54.48;101869.78;5063025;28;44795;-90
2021/06/12 05:12:31;;;;;;;;;4.50;4.50;;;;;21.14;54.34;101866.22;5066325;28;45385;-91
2021/06/12 05:14:59;;;;;;;;;3.50;3.25;;;;;21.14;54.67;101871.50;5067379;28;45327;-92
2021/06/12 05:17:26;;;;;;;;;2.00;2.00;;;;;21.17;55.03;101866.25;5065932;28;45806;-92
2021/06/12 05:19:52;;;;;;;;;3.00;2.75;;;;;21.12;54.89;101852.13;5061314;28;45363;-91
2021/06/12 05:22:21;;;;;;;;;3.50;3.50;;;;;21.14;54.40;101852.16;5061903;28;45857;-92
2021/06/12 05:24:47;;;;;;;;;3.00;3.00;;;;;21.13;54.77;101853.00;5068137;28;45818;-92
2021/06/12 05:27:13;;;;;;;;;5.00;3.00;;;;;21.13;54.91;101848.66;5065411;28;45348;-92
2021/06/12 05:29:39;;;;;;;;;3.75;3.75;;;;;21.24;55.04;101855.84;5067122;28;45348;-90
2021/06/12 05:32:05;;;;;;;;;3.00;3.00;;;;;21.26;54.28;101862.03;5072165;28;46216;-92
2021/06/12 05:34:30;;;;;;;;;3.50;3.00;;;;;21.22;54.71;101870.72;5074130;28;45450;-88
2021/06/12 05:36:58;;;;;;;;;3.75;3.75;;;;;21.17;54.36;101875.91;5083723;28;44794;-85
2021/06/12 05:39:23;;;;;;;;;3.00;3.00;;;;;21.18;54.95;101881.19;5084585;28;44793;-87
2021/06/12 05:41:49;;;;;;;;;4.00;4.00;;;;;21.26;54.55;101876.06;5076114;28;46062;-89
2021/06/12 05:44:15;;;;;;;;;6.75;4.00;;;;;21.30;55.07;101871.75;5070828;28;45133;-87
2021/06/12 05:46:40;;;;;;;;;2.75;2.00;;;;;21.21;54.96;101872.50;5059627;28;45339;-91
2021/06/12 05:49:07;;;;;;;;;2.75;2.75;;;;;21.15;55.01;101867.09;5067822;28;45323;-92
2021/06/12 05:51:33;;;;;;;;;4.50;3.25;;;;;21.28;54.85;101882.25;5048822;28;45395;-92
2021/06/12 05:53:59;;;;;;;;;4.50;3.00;;;;;21.33;54.94;101884.97;5047382;28;45316;-88
2021/06/12 05:56:24;;;;;;;;;3.00;3.00;;;;;21.32;54.50;101876.19;5043286;28;45399;-89
2021/06/12 05:58:50;;;;;;;;;2.50;2.50;;;;;21.36;54.55;101890.31;5043664;28;45587;-91
2021/06/12 06:01:17;;;;;;;;;3.25;2.00;;;;;21.19;54.54;101868.94;5041214;28;45598;-92
2021/06/12 06:03:43;;;;;;;;;3.75;3.75;;;;;21.34;54.06;101887.63;5051934;28;45252;-84
2021/06/12 06:06:08;;;;;;;;;2.50;2.50;;;;;21.31;53.71;101866.53;5061563;28;45437;-90
2021/06/12 06:08:35;;;;;;;;;4.50;4.50;;;;;21.33;53.68;101877.94;5068317;28;44789;-89
2021/06/12 06:11:04;;;;;;;;;3.00;3.00;;;;;21.31;53.81;101886.69;5071376;28;45514;-93
2021/06/12 06:13:48;;;;;;;;;6.50;4.00;;;;;21.27;53.89;101880.50;5062069;28;45332;-88
2021/06/12 06:16:14;;;;;;;;;7.00;6.75;;;;;21.27;54.70;101888.38;5062187;28;45267;-91
2021/06/12 06:18:40;;;;;;;;;8.25;8.25;;;;;21.29;54.21;101886.69;5061223;28;45699;-87
2021/06/12 06:21:08;;;;;;;;;7.50;7.50;;;;;21.18;54.17;101883.84;5056263;28;47287;-88
2021/06/12 06:23:35;;;;;;;;;6.00;6.00;;;;;21.23;54.85;101886.53;5071096;28;45791;-85
2021/06/12 06:26:01;;;;;;;;;8.00;6.00;;;;;21.25;54.75;101892.75;5049092;28;45324;-88
2021/06/12 06:28:27;;;;;;;;;7.25;7.25;;;;;21.29;54.91;101891.94;5041870;28;45576;-85
2021/06/12 06:30:52;;;;;;;;;6.00;6.00;;;;;21.23;55.04;101897.09;5056820;28;45451;-85
2021/06/12 06:33:21;;;;;;;;;7.00;5.00;;;;;21.29;54.72;101899.84;5057196;28;45190;-83
2021/06/12 06:35:46;;;;;;;;;7.50;7.25;;;;;21.23;54.51;101896.22;5058715;28;45446;-81
2021/06/12 06:38:12;;;;;;;;;4.75;4.50;;;;;21.25;54.64;101900.63;5058073;28;45568;-85
2021/06/12 06:40:37;;;;;;;;;7.25;7.00;;;;;21.17;54.86;101899.63;5062730;28;46094;-86
2021/06/12 06:43:03;;;;;;;;;8.00;8.00;;;;;21.15;54.82;101919.75;5057691;28;45514;-82
2021/06/12 06:45:29;;;;;;;;;7.75;6.00;;;;;21.03;55.60;101921.31;5058212;28;45451;-81
2021/06/12 06:47:54;;;;;;;;;7.50;6.50;;;;;20.91;55.16;101902.63;5060890;28;45578;-86
2021/06/12 06:50:20;;;;;;;;;7.00;6.00;;;;;20.90;55.06;101898.22;5040617;28;47609;-81
2021/06/12 06:52:48;;;;;;;;;8.00;7.25;;;;;21.07;55.01;101916.97;5057855;28;45267;-81
2021/06/12 06:55:15;;;;;;;;;7.75;7.25;;;;;21.13;55.46;101919.75;5058423;28;45461;-78
2021/06/12 06:57:42;;;;;;;;;10.50;10.50;;;;;21.14;55.05;101928.53;5038352;28;45479;-84
2021/06/12 07:00:08;;;;;;;;;8.50;7.50;;;;;21.07;54.89;101922.25;5043750;28;47790;-82
2021/06/12 07:02:34;;;;;;;;;7.25;7.25;;;;;21.01;55.64;101922.16;5054479;28;45759;-92
2021/06/12 07:05:00;;;;;;;;;8.00;8.00;;;;;21.03;55.90;101923.94;5037921;28;45287;-77
2021/06/12 07:07:25;;;;;;;;;6.50;6.50;;;;;21.01;55.92;101932.69;5038636;28;45213;-81
2021/06/12 07:09:52;;;;;;;;;9.00;8.25;;;;;20.96;56.06;101927.31;5056336;28;45430;-80
2021/06/12 07:12:18;;;;;;;;;10.75;8.50;;;;;21.03;55.91;101933.59;5056755;28;45845;-80
2021/06/12 07:14:44;;;;;;;;;9.75;8.75;;;;;20.94;55.44;101907.09;5057677;28;45453;-83
2021/06/12 07:17:12;;;;;;;;;12.25;11.25;;;;;21.08;55.23;101942.47;5058267;28;45625;-80
2021/06/12 07:19:38;;;;;;;;;8.00;8.00;;;;;21.07;55.48;101952.97;5041332;28;47312;-80
2021/06/12 07:22:04;;;;;;;;;10.00;9.50;;;;;20.96;55.74;101960.63;5056684;28;45630;-80
2021/06/12 07:24:33;;;;;;;;;11.75;10.00;;;;;20.87;55.48;101966.63;5058164;28;45371;-79
2021/06/12 07:26:59;;;;;;;;;8.25;8.25;;;;;20.77;56.26;101965.53;5058996;28;45215;-87
2021/06/12 07:29:25;;;;;;;;;10.50;9.00;;;;;20.65;56.22;101934.56;5043427;28;47771;-79
2021/06/12 07:31:52;;;;;;;;;11.50;8.00;;;;;20.88;56.32;101960.50;5038341;28;45494;-80
2021/06/12 07:34:18;;;;;;;;;8.00;8.00;;;;;21.01;55.81;101964.28;5055135;28;45351;-75
2021/06/12 07:36:44;;;;;;;;;9.00;8.25;;;;;21.18;55.66;101977.78;5056622;28;45538;-81
2021/06/12 07:39:10;;;;;;;;;11.75;10.00;;;;;21.26;55.74;101985.84;5036384;28;47850;-82
2021/06/12 07:41:38;;;;;;;;;10.75;10.00;;;;;21.38;55.29;101987.78;5056040;28;45224;-80
2021/06/12 07:44:05;;;;;;;;;11.50;9.25;;;;;21.45;55.51;101979.13;5037351;28;45427;-80
2021/06/12 07:46:32;;;;;;;;;13.75;11.00;;;;;21.47;55.00;101988.88;5056470;28;45324;-81
2021/06/12 07:48:58;;;;;;;;;10.00;10.00;;;;;21.50;54.94;101986.28;5057248;28;46168;-80
2021/06/12 07:51:26;;;;;;;;;10.75;9.00;;;;;21.64;54.94;101988.31;5056247;28;45451;-82
2021/06/12 07:53:51;;;;;;;;;10.25;9.00;;;;;21.68;54.69;101994.50;5037025;28;45514;-80
2021/06/12 07:56:17;;;;;;;;;12.25;11.50;;;;;21.66;54.57;101991.88;5056770;28;45551;-79
2021/06/12 07:58:42;;;;;;;;;12.50;11.25;;;;;21.65;54.37;101998.00;5055696;28;45589;-78
2021/06/12 08:01:08;;;;;;;;;13.50;12.50;;;;;21.46;54.81;101992.38;5039336;28;45349;-86
2021/06/12 08:03:35;;;;;;;;;18.75;14.75;;;;;21.42;54.46;102003.69;5054633;28;45318;-78
2021/06/12 08:06:01;;;;;;;;;16.25;11.75;;;;;21.32;54.62;101984.22;5055364;28;45487;-81
2021/06/12 08:08:27;;;;;;;;;16.00;14.00;;;;;21.40;55.10;101988.72;5056651;28;45837;-82
2021/06/12 08:10:53;;;;;;;;;13.75;12.25;;;;;21.36;54.74;101986.88;5037017;28;45560;-75
2021/06/12 08:13:18;;;;;;;;;15.75;13.50;;;;;21.41;54.69;102001.03;5053701;28;45549;-75
2021/06/12 08:15:44;;;;;;;;;21.25;17.50;;;;;21.38;55.07;102006.25;5055093;28;45580;-74
2021/06/12 08:18:10;;;;;;;;;16.25;14.25;;;;;21.32;54.90;101999.09;5058115;28;45391;-74
2021/06/12 08:20:36;;;;;;;;;15.25;14.50;;;;;21.38;55.09;101987.78;5058670;28;45289;-74
2021/06/12 08:23:02;;;;;;;;;19.50;15.00;;;;;21.40;55.35;101996.63;5058668;28;45983;-74
2021/06/12 08:25:28;;;;;;;;;13.75;12.75;;;;;21.42;55.47;101989.66;5058337;28;45520;-75
2021/06/12 08:27:54;;;;;;;;;16.25;15.25;;;;;21.43;55.18;101984.38;5060323;28;45289;-75
2021/06/12 08:30:20;;;;;;;;;18.00;15.75;;;;;21.49;54.56;101988.88;5058821;28;45365;-76
2021/06/12 08:32:45;;;;;;;;;16.50;14.50;;;;;21.59;54.68;101993.50;5040842;28;45546;-75
2021/06/12 08:35:11;;;;;;;;;19.25;18.00;;;;;21.72;54.59;101993.72;5058689;28;45409;-74
2021/06/12 08:37:37;;;;;;;;;18.75;17.25;;;;;21.75;54.42;101999.06;5059799;28;45434;-75
2021/06/12 08:40:05;;;;;;;;;16.25;14.75;;;;;21.82;54.45;102003.56;5061047;28;45304;-76
2021/06/12 08:42:30;;;;;;;;;20.00;16.50;;;;;21.83;54.37;102004.44;5059546;28;45383;-76
2021/06/12 08:44:58;;;;;;;;;18.50;17.00;;;;;21.84;54.10;102001.84;5059551;28;45526;-76
2021/06/12 08:47:24;;;;;;;;;18.00;15.25;;;;;21.90;53.82;102016.88;5058310;28;46387;-76
2021/06/12 08:49:51;;;;;;;;;21.50;17.25;;;;;21.89;54.37;102020.38;5058131;28;46009;-77
2021/06/12 08:52:17;;;;;;;;;19.50;16.25;;;;;21.89;54.52;102013.34;5058483;28;45399;-76
2021/06/12 08:54:43;;;;;;;;;19.50;16.75;;;;;21.95;54.07;102007.28;5058838;28;45335;-75
2021/06/12 08:57:09;;;;;;;;;16.00;13.50;;;;;22.07;54.12;102018.03;5057023;28;46107;-74
2021/06/12 08:59:36;;;;;;;;;14.50;14.50;;;;;22.13;54.03;102004.06;5058422;28;45777;-75
2021/06/12 09:02:03;;;;;;;;;12.50;12.00;;;;;22.20;53.26;102012.97;5057978;28;45380;-75
2021/06/12 09:04:35;;;;;;;;;15.50;14.00;;;;;22.12;53.13;102015.47;5058180;28;45391;-75
2021/06/12 09:07:28;;;;;;;;;16.25;15.25;;;;;22.05;53.08;102017.13;5058317;28;45325;-75
2021/06/12 09:09:59;;;;;;;;;16.75;16.25;;;;;22.04;53.26;102010.06;5040331;28;45806;-76
2021/06/12 09:12:49;;;;;;;;;18.25;17.00;;;;;22.19;53.19;102011.19;5058081;28;45327;-74
2021/06/12 09:15:17;;;;;;;;;14.50;14.25;;;;;22.27;53.03;102002.53;5043439;28;45422;-74
2021/06/12 09:17:50;;;;;;;;;15.50;14.50;;;;;22.30;52.53;102014.00;5060267;28;45439;-74
2021/06/12 09:20:28;;;;;;;;;13.00;12.00;;;;;22.27;52.60;102007.81;5061507;28;45261;-75
2021/06/12 09:23:07;;;;;;;;;12.00;11.75;;;;;22.44;53.26;102011.59;5062125;28;45396;-75
2021/06/12 09:25:39;;;;;;;;;13.25;11.00;;;;;22.45;52.24;102013.38;5065118;28;45575;-75
2021/06/12 09:28:04;;;;;;;;;13.25;13.25;;;;;22.48;52.31;102021.31;5059533;28;45262;-74
2021/06/12 09:30:30;;;;;;;;;15.00;12.00;;;;;22.51;52.85;102006.44;5058142;28;45451;-76
2021/06/12 09:32:56;;;;;;;;;13.50;10.50;;;;;22.56;52.43;101999.47;5040544;28;45450;-75
2021/06/12 09:35:34;;;;;;;;;11.00;9.50;;;;;22.61;51.93;102011.84;5058838;28;45499;-76
2021/06/12 09:38:00;;;;;;;;;10.00;8.00;;;;;22.59;51.30;102003.88;5056183;28;45371;-78
2021/06/12 09:40:30;;;;;;;;;11.25;9.25;;;;;22.69;52.01;102018.13;5039501;28;45320;-78
2021/06/12 09:43:00;;;;;;;;;9.00;9.00;;;;;22.58;51.35;102007.41;5058101;28;45406;-79
2021/06/12 09:45:34;;;;;;;;;12.50;7.00;;;;;22.51;51.56;102013.47;5056663;28;45240;-75
2021/06/12 09:48:15;;;;;;;;;5.75;5.00;;;;;22.50;51.93;102012.59;5057945;28;45373;-75
2021/06/12 09:50:42;;;;;;;;;9.25;6.75;;;;;22.60;51.39;102013.59;5057482;28;45406;-75
2021/06/12 09:53:20;;;;;;;;;5.00;4.25;;;;;22.67;51.38;102015.47;5057872;28;45336;-74
2021/06/12 09:55:46;;;;;;;;;5.00;4.50;;;;;22.75;51.10;102010.28;5058589;28;45400;-74
2021/06/12 09:58:13;;;;;;;;;6.25;6.25;;;;;22.92;51.18;102007.84;5056422;28;45676;-76
2021/06/12 10:00:46;;;;;;;;;4.25;4.25;;;;;22.99;50.79;102012.38;5057243;28;45342;-74
2021/06/12 10:03:26;;;;;;;;;5.00;5.00;;;;;22.94;50.68;102002.59;5057391;28;45277;-74
2021/06/12 10:06:14;;;;;;;;;4.50;4.50;;;;;22.94;50.87;102006.13;5039511;28;45341;-75
2021/06/12 10:08:45;;;;;;;;;6.00;5.00;;;;;23.02;50.78;102006.22;5038686;28;47292;-75
2021/06/12 10:11:12;;;;;;;;;3.00;3.00;;;;;23.18;50.57;102007.28;5056574;28;45875;-75
2021/06/12 10:13:38;;;;;;;;;4.25;4.25;;;;;23.17;50.22;102013.44;5057438;28;45463;-75
2021/06/12 10:16:05;;;;;;;;;3.75;3.75;;;;;23.16;49.74;102017.81;5058971;28;45265;-76
2021/06/12 10:18:33;;;;;;;;;5.00;4.50;;;;;23.19;50.01;102017.91;5038848;28;47443;-77
2021/06/12 10:20:59;;;;;;;;;8.50;7.00;;;;;23.03;50.37;102027.34;5057180;28;45637;-75
2021/06/12 10:23:25;;;;;;;;;7.00;6.00;;;;;22.85;50.52;102021.84;5055807;28;45707;-75
2021/06/12 10:25:54;;;;;;;;;5.75;5.75;;;;;22.88;51.07;102019.25;5057312;28;45422;-74
2021/06/12 10:28:21;;;;;;;;;6.00;5.50;;;;;23.09;51.14;102018.63;5057399;28;46045;-75
2021/06/12 10:30:47;;;;;;;;;7.00;6.25;;;;;23.17;50.50;102018.72;5039965;28;45268;-75
2021/06/12 10:33:22;;;;;;;;;5.00;5.00;;;;;23.24;50.24;102020.59;5056746;28;45205;-75
2021/06/12 10:35:48;;;;;;;;;5.50;4.50;;;;;23.33;50.42;102015.41;5057234;28;45325;-75
2021/06/12 10:38:14;;;;;;;;;6.75;5.50;;;;;23.45;49.91;102011.13;5055726;28;45399;-75
2021/06/12 10:40:56;;;;;;;;;5.00;5.00;;;;;23.45;50.06;102022.59;5056715;28;45839;-75
2021/06/12 10:43:25;;;;;;;;;5.00;4.00;;;;;23.31;49.78;102026.84;5056895;28;45252;-75
2021/06/12 10:46:06;;;;;;;;;5.25;4.25;;;;;23.26;50.02;102029.44;5058432;28;45253;-75
2021/06/12 10:48:39;;;;;;;;;4.50;3.25;;;;;23.32;50.10;102029.47;5057853;28;45423;-75
2021/06/12 10:51:05;;;;;;;;;3.00;3.00;;;;;23.42;50.34;102024.31;5057557;28;45362;-75
2021/06/12 10:53:34;;;;;;;;;5.25;5.25;;;;;23.50;50.09;102027.94;5056100;28;45229;-75
2021/06/12 10:56:29;;;;;;;;;6.00;4.75;;;;;23.61;49.85;102022.75;5057164;28;45606;-76
2021/06/12 10:58:55;;;;;;;;;4.50;4.00;;;;;23.64;49.53;102034.25;5056968;28;45476;-77
2021/06/12 11:01:23;;;;;;;;;5.00;5.00;;;;;23.66;49.35;102028.97;5058821;28;45441;-75
2021/06/12 11:09:20;;;;;;;;;6.00;6.00;;;;;23.83;49.14;102036.16;5058572;28;45434;-76
2021/06/12 11:11:51;;;;;;;;;4.00;4.00;;;;;23.96;49.09;102046.03;5058008;28;45367;-77
2021/06/12 11:14:24;;;;;;;;;8.25;6.75;;;;;24.08;48.97;102030.25;5057955;28;45343;-77
2021/06/12 11:17:08;;;;;;;;;6.00;5.25;;;;;24.09;48.51;102032.03;5057532;28;45621;-74
2021/06/12 11:19:36;;;;;;;;;6.25;4.75;;;;;24.10;48.25;102036.47;5057710;28;45434;-75
2021/06/12 11:22:23;;;;;;;;;7.75;7.75;;;;;24.06;48.51;102029.34;5058097;28;45793;-76
2021/06/12 11:24:51;;;;;;;;;5.75;4.75;;;;;24.03;48.69;102026.66;5056533;28;45441;-74
2021/06/12 11:27:23;;;;;;;;;5.75;5.75;;;;;24.09;48.78;102029.38;5056140;28;45656;-77
2021/06/12 11:30:17;;;;;;;;;6.75;6.50;;;;;24.18;48.58;102019.75;5039956;28;45479;-77
2021/06/12 11:33:12;;;;;;;;;4.00;4.00;;;;;24.22;47.84;102018.91;5057505;28;45811;-78
2021/06/12 11:35:37;;;;;;;;;4.25;4.25;;;;;24.27;48.12;102022.44;5056179;28;45423;-78